sensor_id;sensor_type;location;lat;lon;timestamp;pressure;altitude;pressure_sealevel;temperature;humidity
13015;BME280;6573;57.696;11.950;2023-04-21T00:00:13;102740.59;;;13.73;89.79
13015;BME280;6573;57.696;11.950;2023-04-21T00:02:43;102749.03;;;13.48;91.49
13015;BME280;6573;57.696;11.950;2023-04-21T00:05:12;102740.06;;;13.40;92.00
13015;BME280;6573;57.696;11.950;2023-04-21T00:07:41;102750.03;;;13.56;91.92
13015;BME280;6573;57.696;11.950;2023-04-21T00:10:10;102729.25;;;13.25;92.70
13015;BME280;6573;57.696;11.950;2023-04-21T00:12:38;102725.69;;;13.23;93.05
13015;BME280;6573;57.696;11.950;2023-04-21T00:15:07;102749.75;;;13.38;92.56
13015;BME280;6573;57.696;11.950;2023-04-21T00:17:36;102742.19;;;13.62;91.46
13015;BME280;6573;57.696;11.950;2023-04-21T00:20:07;102744.16;;;13.75;91.08
13015;BME280;6573;57.696;11.950;2023-04-21T00:22:36;102727.19;;;13.61;91.24
13015;BME280;6573;57.696;11.950;2023-04-21T00:25:05;102739.59;;;13.63;91.76
13015;BME280;6573;57.696;11.950;2023-04-21T00:27:33;102734.91;;;13.46;92.31
13015;BME280;6573;57.696;11.950;2023-04-21T00:30:02;102734.69;;;13.34;93.08
13015;BME280;6573;57.696;11.950;2023-04-21T00:32:30;102737.16;;;13.22;93.85
13015;BME280;6573;57.696;11.950;2023-04-21T00:34:59;102736.97;;;13.13;94.49
13015;BME280;6573;57.696;11.950;2023-04-21T00:37:29;102736.31;;;13.26;94.42
13015;BME280;6573;57.696;11.950;2023-04-21T00:39:57;102732.13;;;13.37;93.83
13015;BME280;6573;57.696;11.950;2023-04-21T00:42:25;102735.75;;;13.45;93.51
13015;BME280;6573;57.696;11.950;2023-04-21T00:44:54;102716.16;;;13.31;93.56
13015;BME280;6573;57.696;11.950;2023-04-21T00:47:22;102731.22;;;13.38;93.74
13015;BME280;6573;57.696;11.950;2023-04-21T00:49:51;102722.34;;;13.33;93.92
13015;BME280;6573;57.696;11.950;2023-04-21T00:52:19;102733.88;;;13.36;94.36
13015;BME280;6573;57.696;11.950;2023-04-21T00:54:52;102731.16;;;13.32;94.80
13015;BME280;6573;57.696;11.950;2023-04-21T00:57:21;102730.94;;;13.20;95.22
13015;BME280;6573;57.696;11.950;2023-04-21T00:59:50;102716.50;;;13.02;95.48
13015;BME280;6573;57.696;11.950;2023-04-21T01:02:18;102734.22;;;13.07;95.89
13015;BME280;6573;57.696;11.950;2023-04-21T01:04:47;102727.34;;;13.15;95.76
13015;BME280;6573;57.696;11.950;2023-04-21T01:07:15;102731.03;;;13.26;95.38
13015;BME280;6573;57.696;11.950;2023-04-21T01:09:43;102736.25;;;13.23;95.62
13015;BME280;6573;57.696;11.950;2023-04-21T01:12:13;102735.34;;;13.19;96.49
13015;BME280;6573;57.696;11.950;2023-04-21T01:14:41;102714.56;;;12.92;97.57
13015;BME280;6573;57.696;11.950;2023-04-21T01:17:10;102730.53;;;12.98;99.25
13015;BME280;6573;57.696;11.950;2023-04-21T01:19:41;102733.94;;;12.91;100.00
13015;BME280;6573;57.696;11.950;2023-04-21T01:22:11;102736.50;;;12.87;100.00
13015;BME280;6573;57.696;11.950;2023-04-21T01:24:42;102728.41;;;12.79;100.00
13015;BME280;6573;57.696;11.950;2023-04-21T01:27:11;102711.47;;;12.68;100.00
13015;BME280;6573;57.696;11.950;2023-04-21T01:29:41;102719.59;;;12.77;100.00
13015;BME280;6573;57.696;11.950;2023-04-21T01:32:11;102718.00;;;12.88;100.00
13015;BME280;6573;57.696;11.950;2023-04-21T01:34:41;102717.78;;;12.76;100.00
13015;BME280;6573;57.696;11.950;2023-04-21T01:37:11;102723.06;;;12.76;100.00
13015;BME280;6573;57.696;11.950;2023-04-21T01:39:40;102696.53;;;12.70;100.00
13015;BME280;6573;57.696;11.950;2023-04-21T01:42:09;102726.56;;;12.75;100.00
13015;BME280;6573;57.696;11.950;2023-04-21T01:44:38;102723.69;;;12.62;100.00
13015;BME280;6573;57.696;11.950;2023-04-21T01:47:07;102722.13;;;12.73;100.00
13015;BME280;6573;57.696;11.950;2023-04-21T01:49:35;102716.00;;;12.75;100.00
13015;BME280;6573;57.696;11.950;2023-04-21T01:52:03;102722.91;;;12.67;100.00
13015;BME280;6573;57.696;11.950;2023-04-21T01:54:34;102731.28;;;12.45;100.00
13015;BME280;6573;57.696;11.950;2023-04-21T01:57:03;102718.63;;;12.29;100.00
13015;BME280;6573;57.696;11.950;2023-04-21T01:59:32;102691.72;;;12.05;100.00
13015;BME280;6573;57.696;11.950;2023-04-21T02:02:00;102728.19;;;12.24;100.00
13015;BME280;6573;57.696;11.950;2023-04-21T02:04:29;102720.28;;;12.24;100.00
13015;BME280;6573;57.696;11.950;2023-04-21T02:06:58;102702.47;;;12.14;100.00
13015;BME280;6573;57.696;11.950;2023-04-21T02:09:26;102723.56;;;12.14;100.00
13015;BME280;6573;57.696;11.950;2023-04-21T02:11:56;102716.53;;;12.13;100.00
13015;BME280;6573;57.696;11.950;2023-04-21T02:14:24;102721.81;;;12.13;100.00
13015;BME280;6573;57.696;11.950;2023-04-21T02:16:53;102722.06;;;12.25;100.00
13015;BME280;6573;57.696;11.950;2023-04-21T02:19:22;102720.19;;;12.21;100.00
13015;BME280;6573;57.696;11.950;2023-04-21T02:21:51;102725.44;;;12.18;100.00
13015;BME280;6573;57.696;11.950;2023-04-21T02:24:19;102723.78;;;12.23;100.00
13015;BME280;6573;57.696;11.950;2023-04-21T02:26:47;102697.00;;;12.05;100.00
13015;BME280;6573;57.696;11.950;2023-04-21T02:29:17;102722.97;;;12.27;100.00
13015;BME280;6573;57.696;11.950;2023-04-21T02:31:45;102715.00;;;12.24;100.00
13015;BME280;6573;57.696;11.950;2023-04-21T02:34:29;102723.47;;;12.08;100.00
13015;BME280;6573;57.696;11.950;2023-04-21T02:36:57;102701.31;;;11.62;100.00
13015;BME280;6573;57.696;11.950;2023-04-21T02:39:26;102729.63;;;11.69;100.00
13015;BME280;6573;57.696;11.950;2023-04-21T02:41:54;102713.28;;;11.48;100.00
13015;BME280;6573;57.696;11.950;2023-04-21T02:44:24;102732.94;;;11.62;100.00
13015;BME280;6573;57.696;11.950;2023-04-21T02:46:52;102732.56;;;11.47;100.00
13015;BME280;6573;57.696;11.950;2023-04-21T02:49:21;102729.69;;;11.73;100.00
13015;BME280;6573;57.696;11.950;2023-04-21T02:51:49;102725.75;;;11.55;100.00
13015;BME280;6573;57.696;11.950;2023-04-21T02:54:18;102731.97;;;11.59;100.00
13015;BME280;6573;57.696;11.950;2023-04-21T02:56:46;102729.38;;;11.60;100.00
13015;BME280;6573;57.696;11.950;2023-04-21T02:59:14;102720.47;;;11.55;100.00
13015;BME280;6573;57.696;11.950;2023-04-21T03:01:44;102723.22;;;11.61;100.00
13015;BME280;6573;57.696;11.950;2023-04-21T03:04:14;102718.56;;;11.48;100.00
13015;BME280;6573;57.696;11.950;2023-04-21T03:06:43;102724.56;;;11.43;100.00
13015;BME280;6573;57.696;11.950;2023-04-21T03:09:11;102730.78;;;11.46;100.00
13015;BME280;6573;57.696;11.950;2023-04-21T03:11:39;102731.75;;;11.50;100.00
13015;BME280;6573;57.696;11.950;2023-04-21T03:14:08;102695.31;;;11.32;100.00
13015;BME280;6573;57.696;11.950;2023-04-21T03:16:36;102714.41;;;11.59;100.00
13015;BME280;6573;57.696;11.950;2023-04-21T03:19:07;102714.84;;;11.40;100.00
13015;BME280;6573;57.696;11.950;2023-04-21T03:21:36;102719.84;;;11.31;100.00
13015;BME280;6573;57.696;11.950;2023-04-21T03:24:05;102711.63;;;11.18;100.00
13015;BME280;6573;57.696;11.950;2023-04-21T03:26:34;102711.81;;;11.24;100.00
13015;BME280;6573;57.696;11.950;2023-04-21T03:29:02;102714.47;;;11.25;100.00
13015;BME280;6573;57.696;11.950;2023-04-21T03:31:30;102719.63;;;11.22;100.00
13015;BME280;6573;57.696;11.950;2023-04-21T03:33:59;102696.63;;;11.15;100.00
13015;BME280;6573;57.696;11.950;2023-04-21T03:36:28;102701.69;;;11.06;100.00
13015;BME280;6573;57.696;11.950;2023-04-21T03:38:57;102709.53;;;11.04;100.00
13015;BME280;6573;57.696;11.950;2023-04-21T03:41:45;102708.00;;;11.13;100.00
13015;BME280;6573;57.696;11.950;2023-04-21T03:44:14;102711.28;;;11.04;100.00
13015;BME280;6573;57.696;11.950;2023-04-21T03:46:42;102713.97;;;11.07;100.00
13015;BME280;6573;57.696;11.950;2023-04-21T03:49:10;102713.56;;;10.90;100.00
13015;BME280;6573;57.696;11.950;2023-04-21T03:51:40;102705.97;;;10.70;100.00
13015;BME280;6573;57.696;11.950;2023-04-21T03:54:08;102717.38;;;10.69;100.00
13015;BME280;6573;57.696;11.950;2023-04-21T03:56:36;102709.53;;;10.72;100.00
13015;BME280;6573;57.696;11.950;2023-04-21T03:59:05;102705.97;;;10.70;100.00
13015;BME280;6573;57.696;11.950;2023-04-21T04:01:33;102702.59;;;10.74;100.00
13015;BME280;6573;57.696;11.950;2023-04-21T04:04:01;102708.28;;;10.89;100.00
13015;BME280;6573;57.696;11.950;2023-04-21T04:06:30;102708.00;;;10.80;100.00
13015;BME280;6573;57.696;11.950;2023-04-21T04:09:00;102706.31;;;10.82;100.00
13015;BME280;6573;57.696;11.950;2023-04-21T04:11:30;102710.13;;;10.93;100.00
13015;BME280;6573;57.696;11.950;2023-04-21T04:13:59;102705.38;;;11.14;100.00
13015;BME280;6573;57.696;11.950;2023-04-21T04:16:27;102665.06;;;10.82;100.00
13015;BME280;6573;57.696;11.950;2023-04-21T04:18:56;102701.28;;;10.91;100.00
13015;BME280;6573;57.696;11.950;2023-04-21T04:21:24;102707.13;;;10.79;100.00
13015;BME280;6573;57.696;11.950;2023-04-21T04:23:53;102702.03;;;10.85;100.00
13015;BME280;6573;57.696;11.950;2023-04-21T04:26:23;102701.22;;;10.88;100.00
13015;BME280;6573;57.696;11.950;2023-04-21T04:28:51;102696.34;;;11.03;100.00
13015;BME280;6573;57.696;11.950;2023-04-21T04:31:22;102697.69;;;10.87;100.00
13015;BME280;6573;57.696;11.950;2023-04-21T04:33:51;102681.59;;;10.77;100.00
13015;BME280;6573;57.696;11.950;2023-04-21T04:36:21;102684.69;;;10.61;100.00
13015;BME280;6573;57.696;11.950;2023-04-21T04:38:50;102702.59;;;10.74;100.00
13015;BME280;6573;57.696;11.950;2023-04-21T04:41:18;102694.00;;;10.81;100.00
13015;BME280;6573;57.696;11.950;2023-04-21T04:43:48;102707.13;;;10.79;100.00
13015;BME280;6573;57.696;11.950;2023-04-21T04:46:17;102697.97;;;10.65;100.00
13015;BME280;6573;57.696;11.950;2023-04-21T04:48:46;102699.88;;;10.71;100.00
13015;BME280;6573;57.696;11.950;2023-04-21T04:51:15;102703.22;;;10.98;100.00
13015;BME280;6573;57.696;11.950;2023-04-21T04:53:44;102698.09;;;11.04;100.00
13015;BME280;6573;57.696;11.950;2023-04-21T04:56:12;102701.53;;;11.00;100.00
13015;BME280;6573;57.696;11.950;2023-04-21T04:58:40;102697.16;;;11.00;100.00
13015;BME280;6573;57.696;11.950;2023-04-21T05:01:13;102694.09;;;10.84;100.00
13015;BME280;6573;57.696;11.950;2023-04-21T05:03:43;102688.84;;;10.84;100.00
13015;BME280;6573;57.696;11.950;2023-04-21T05:06:11;102689.56;;;10.80;100.00
13015;BME280;6573;57.696;11.950;2023-04-21T05:08:40;102682.97;;;10.95;100.00
13015;BME280;6573;57.696;11.950;2023-04-21T05:11:08;102679.34;;;10.90;100.00
13015;BME280;6573;57.696;11.950;2023-04-21T05:13:36;102681.94;;;10.89;100.00
13015;BME280;6573;57.696;11.950;2023-04-21T05:16:07;102685.72;;;11.00;100.00
13015;BME280;6573;57.696;11.950;2023-04-21T05:18:37;102650.56;;;10.98;100.00
13015;BME280;6573;57.696;11.950;2023-04-21T05:21:05;102667.88;;;11.24;100.00
13015;BME280;6573;57.696;11.950;2023-04-21T05:23:34;102677.78;;;11.34;100.00
13015;BME280;6573;57.696;11.950;2023-04-21T05:26:02;102678.22;;;11.17;100.00
13015;BME280;6573;57.696;11.950;2023-04-21T05:28:30;102679.19;;;11.20;100.00
13015;BME280;6573;57.696;11.950;2023-04-21T05:30:59;102633.88;;;10.97;100.00
13015;BME280;6573;57.696;11.950;2023-04-21T05:33:27;102673.03;;;11.20;100.00
13015;BME280;6573;57.696;11.950;2023-04-21T05:35:59;102676.06;;;11.36;100.00
13015;BME280;6573;57.696;11.950;2023-04-21T05:38:27;102660.13;;;11.30;100.00
13015;BME280;6573;57.696;11.950;2023-04-21T05:40:55;102668.34;;;11.44;100.00
13015;BME280;6573;57.696;11.950;2023-04-21T05:43:23;102671.97;;;11.49;100.00
13015;BME280;6573;57.696;11.950;2023-04-21T05:45:52;102674.84;;;11.58;100.00
13015;BME280;6573;57.696;11.950;2023-04-21T05:48:21;102664.38;;;11.62;100.00
13015;BME280;6573;57.696;11.950;2023-04-21T05:50:50;102607.72;;;11.42;100.00
13015;BME280;6573;57.696;11.950;2023-04-21T05:53:20;102671.94;;;11.85;100.00
13015;BME280;6573;57.696;11.950;2023-04-21T05:55:49;102663.22;;;11.89;100.00
13015;BME280;6573;57.696;11.950;2023-04-21T05:58:17;102661.53;;;11.91;100.00
13015;BME280;6573;57.696;11.950;2023-04-21T06:00:45;102663.44;;;11.98;100.00
13015;BME280;6573;57.696;11.950;2023-04-21T06:03:15;102628.19;;;11.93;100.00
13015;BME280;6573;57.696;11.950;2023-04-21T06:05:43;102658.66;;;12.22;100.00
13015;BME280;6573;57.696;11.950;2023-04-21T06:08:12;102651.97;;;12.39;100.00
13015;BME280;6573;57.696;11.950;2023-04-21T06:10:43;102651.13;;;12.43;100.00
13015;BME280;6573;57.696;11.950;2023-04-21T06:13:11;102644.94;;;12.41;100.00
13015;BME280;6573;57.696;11.950;2023-04-21T06:15:39;102660.16;;;12.53;100.00
13015;BME280;6573;57.696;11.950;2023-04-21T06:18:08;102632.63;;;12.40;100.00
13015;BME280;6573;57.696;11.950;2023-04-21T06:20:36;102639.66;;;12.41;100.00
13015;BME280;6573;57.696;11.950;2023-04-21T06:23:06;102652.25;;;12.54;100.00
13015;BME280;6573;57.696;11.950;2023-04-21T06:25:35;102630.13;;;12.48;100.00
13015;BME280;6573;57.696;11.950;2023-04-21T06:28:05;102643.72;;;12.70;100.00
13015;BME280;6573;57.696;11.950;2023-04-21T06:30:33;102632.94;;;12.58;100.00
13015;BME280;6573;57.696;11.950;2023-04-21T06:33:01;102618.91;;;12.59;100.00
13015;BME280;6573;57.696;11.950;2023-04-21T06:35:30;102629.59;;;12.68;100.00
13015;BME280;6573;57.696;11.950;2023-04-21T06:37:58;102624.38;;;12.71;100.00
13015;BME280;6573;57.696;11.950;2023-04-21T06:40:27;102622.78;;;12.79;100.00
13015;BME280;6573;57.696;11.950;2023-04-21T06:42:58;102624.78;;;12.95;100.00
13015;BME280;6573;57.696;11.950;2023-04-21T06:45:27;102625.00;;;13.08;100.00
13015;BME280;6573;57.696;11.950;2023-04-21T06:47:56;102571.69;;;12.77;100.00
13015;BME280;6573;57.696;11.950;2023-04-21T06:50:24;102598.38;;;12.95;100.00
13015;BME280;6573;57.696;11.950;2023-04-21T06:52:52;102605.66;;;13.09;100.00
13015;BME280;6573;57.696;11.950;2023-04-21T06:55:21;102604.09;;;13.20;100.00
13015;BME280;6573;57.696;11.950;2023-04-21T06:57:49;102613.16;;;13.40;100.00
13015;BME280;6573;57.696;11.950;2023-04-21T07:00:17;102610.69;;;13.49;100.00
13015;BME280;6573;57.696;11.950;2023-04-21T07:02:47;102601.16;;;13.63;100.00
13015;BME280;6573;57.696;11.950;2023-04-21T07:05:16;102599.50;;;13.71;100.00
13015;BME280;6573;57.696;11.950;2023-04-21T07:07:44;102602.31;;;13.85;100.00
13015;BME280;6573;57.696;11.950;2023-04-21T07:10:12;102598.09;;;14.00;100.00
13015;BME280;6573;57.696;11.950;2023-04-21T07:12:45;102597.38;;;14.15;100.00
13015;BME280;6573;57.696;11.950;2023-04-21T07:15:13;102586.84;;;14.18;100.00
13015;BME280;6573;57.696;11.950;2023-04-21T07:17:41;102594.84;;;14.25;100.00
13015;BME280;6573;57.696;11.950;2023-04-21T07:20:12;102601.16;;;14.35;100.00
13015;BME280;6573;57.696;11.950;2023-04-21T07:22:40;102592.44;;;14.47;100.00
13015;BME280;6573;57.696;11.950;2023-04-21T07:25:09;102579.31;;;14.59;100.00
13015;BME280;6573;57.696;11.950;2023-04-21T07:27:38;102588.28;;;14.73;100.00
13015;BME280;6573;57.696;11.950;2023-04-21T07:30:07;102580.41;;;14.82;100.00
13015;BME280;6573;57.696;11.950;2023-04-21T07:32:35;102567.22;;;14.88;99.29
13015;BME280;6573;57.696;11.950;2023-04-21T07:35:05;102571.69;;;15.00;98.09
13015;BME280;6573;57.696;11.950;2023-04-21T07:37:35;102558.56;;;15.19;96.77
13015;BME280;6573;57.696;11.950;2023-04-21T07:40:04;102565.72;;;15.32;96.89
13015;BME280;6573;57.696;11.950;2023-04-21T07:42:32;102571.16;;;15.47;96.82
13015;BME280;6573;57.696;11.950;2023-04-21T07:45:00;102558.75;;;15.46;95.74
13015;BME280;6573;57.696;11.950;2023-04-21T07:47:29;102571.22;;;15.69;95.39
13015;BME280;6573;57.696;11.950;2023-04-21T07:49:57;102582.78;;;15.77;94.76
13015;BME280;6573;57.696;11.950;2023-04-21T07:52:26;102553.59;;;15.77;94.13
13015;BME280;6573;57.696;11.950;2023-04-21T07:54:55;102557.13;;;15.88;94.08
13015;BME280;6573;57.696;11.950;2023-04-21T07:57:24;102566.03;;;15.96;93.58
13015;BME280;6573;57.696;11.950;2023-04-21T07:59:52;102557.19;;;16.03;93.61
13015;BME280;6573;57.696;11.950;2023-04-21T08:02:20;102562.53;;;16.12;91.65
13015;BME280;6573;57.696;11.950;2023-04-21T08:04:49;102559.00;;;16.19;90.38
13015;BME280;6573;57.696;11.950;2023-04-21T08:07:17;102550.16;;;16.14;88.29
13015;BME280;6573;57.696;11.950;2023-04-21T08:09:46;102551.06;;;16.34;88.35
13015;BME280;6573;57.696;11.950;2023-04-21T08:12:15;102545.78;;;16.45;87.33
13015;BME280;6573;57.696;11.950;2023-04-21T08:14:44;102542.22;;;16.46;87.87
13015;BME280;6573;57.696;11.950;2023-04-21T08:17:12;102543.97;;;17.09;87.53
13015;BME280;6573;57.696;11.950;2023-04-21T08:19:40;102538.22;;;18.15;86.82
13015;BME280;6573;57.696;11.950;2023-04-21T08:22:09;102529.94;;;18.54;85.02
13015;BME280;6573;57.696;11.950;2023-04-21T08:24:37;102527.84;;;18.92;80.89
13015;BME280;6573;57.696;11.950;2023-04-21T08:27:05;102518.63;;;19.20;80.25
13015;BME280;6573;57.696;11.950;2023-04-21T08:29:35;102518.06;;;19.69;78.14
13015;BME280;6573;57.696;11.950;2023-04-21T08:32:04;102512.16;;;20.08;76.16
13015;BME280;6573;57.696;11.950;2023-04-21T08:34:33;102508.59;;;20.08;72.61
13015;BME280;6573;57.696;11.950;2023-04-21T08:37:01;102497.56;;;20.30;69.26
13015;BME280;6573;57.696;11.950;2023-04-21T08:39:29;102492.88;;;20.44;67.52
13015;BME280;6573;57.696;11.950;2023-04-21T08:41:58;102492.81;;;19.91;66.11
13015;BME280;6573;57.696;11.950;2023-04-21T08:44:27;102490.63;;;20.17;64.68
13015;BME280;6573;57.696;11.950;2023-04-21T08:46:58;102496.38;;;19.90;61.57
13015;BME280;6573;57.696;11.950;2023-04-21T08:49:29;102498.38;;;19.76;63.03
13015;BME280;6573;57.696;11.950;2023-04-21T08:51:59;102500.41;;;19.59;62.57
13015;BME280;6573;57.696;11.950;2023-04-21T08:54:27;102491.53;;;19.57;63.39
13015;BME280;6573;57.696;11.950;2023-04-21T08:56:56;102487.41;;;19.97;61.91
13015;BME280;6573;57.696;11.950;2023-04-21T08:59:40;102498.38;;;19.76;61.56
13015;BME280;6573;57.696;11.950;2023-04-21T09:02:11;102491.31;;;19.72;60.94
13015;BME280;6573;57.696;11.950;2023-04-21T09:04:42;102486.69;;;19.84;61.51
13015;BME280;6573;57.696;11.950;2023-04-21T09:07:12;102470.00;;;19.69;61.13
13015;BME280;6573;57.696;11.950;2023-04-21T09:09:56;102478.69;;;19.83;60.97
13015;BME280;6573;57.696;11.950;2023-04-21T09:12:27;102464.69;;;19.66;60.47
13015;BME280;6573;57.696;11.950;2023-04-21T09:14:56;102473.25;;;19.89;59.51
13015;BME280;6573;57.696;11.950;2023-04-21T09:17:29;102478.81;;;19.74;59.63
13015;BME280;6573;57.696;11.950;2023-04-21T09:20:12;102462.25;;;19.48;60.44
13015;BME280;6573;57.696;11.950;2023-04-21T09:22:41;102479.16;;;19.50;58.32
13015;BME280;6573;57.696;11.950;2023-04-21T09:25:15;102466.31;;;19.76;58.85
13015;BME280;6573;57.696;11.950;2023-04-21T09:27:44;102468.03;;;19.80;57.78
13015;BME280;6573;57.696;11.950;2023-04-21T09:30:14;102470.63;;;19.86;57.90
13015;BME280;6573;57.696;11.950;2023-04-21T09:32:47;102428.91;;;19.79;58.57
13015;BME280;6573;57.696;11.950;2023-04-21T09:35:15;102461.75;;;19.84;59.50
13015;BME280;6573;57.696;11.950;2023-04-21T09:37:43;102466.31;;;19.76;60.60
13015;BME280;6573;57.696;11.950;2023-04-21T09:40:12;102453.13;;;19.67;61.32
13015;BME280;6573;57.696;11.950;2023-04-21T09:42:41;102449.06;;;19.38;63.08
13015;BME280;6573;57.696;11.950;2023-04-21T09:45:11;102449.00;;;19.42;62.93
13015;BME280;6573;57.696;11.950;2023-04-21T09:47:47;102438.66;;;19.14;63.07
13015;BME280;6573;57.696;11.950;2023-04-21T09:50:20;102421.00;;;19.04;64.24
13015;BME280;6573;57.696;11.950;2023-04-21T09:53:11;102437.72;;;19.18;64.75
13015;BME280;6573;57.696;11.950;2023-04-21T09:55:41;102437.56;;;19.29;63.54
13015;BME280;6573;57.696;11.950;2023-04-21T09:58:11;102435.75;;;19.34;63.37
13015;BME280;6573;57.696;11.950;2023-04-21T10:00:42;102429.63;;;19.24;61.95
13015;BME280;6573;57.696;11.950;2023-04-21T10:03:11;102424.72;;;18.88;62.61
13015;BME280;6573;57.696;11.950;2023-04-21T10:05:42;102420.53;;;18.66;63.81
13015;BME280;6573;57.696;11.950;2023-04-21T10:08:10;102417.56;;;18.93;63.50
13015;BME280;6573;57.696;11.950;2023-04-21T10:10:39;102399.63;;;19.07;63.37
13015;BME280;6573;57.696;11.950;2023-04-21T10:13:12;102412.03;;;19.08;62.85
13015;BME280;6573;57.696;11.950;2023-04-21T10:15:44;102410.38;;;18.98;62.86
13015;BME280;6573;57.696;11.950;2023-04-21T10:18:14;102399.78;;;18.95;62.47
13015;BME280;6573;57.696;11.950;2023-04-21T10:20:55;102408.09;;;18.66;61.90
13015;BME280;6573;57.696;11.950;2023-04-21T10:23:32;102405.22;;;18.83;62.42
13015;BME280;6573;57.696;11.950;2023-04-21T10:26:05;102405.53;;;18.56;62.12
13015;BME280;6573;57.696;11.950;2023-04-21T10:28:53;102408.63;;;19.00;61.80
13015;BME280;6573;57.696;11.950;2023-04-21T10:31:32;102407.50;;;19.16;60.26
13015;BME280;6573;57.696;11.950;2023-04-21T10:34:17;102401.63;;;18.90;60.80
13015;BME280;6573;57.696;11.950;2023-04-21T10:37:12;102397.94;;;19.00;60.60
13015;BME280;6573;57.696;11.950;2023-04-21T10:39:44;102381.66;;;19.21;61.33
13015;BME280;6573;57.696;11.950;2023-04-21T10:42:18;102387.63;;;19.40;60.93
13015;BME280;6573;57.696;11.950;2023-04-21T10:45:10;102389.22;;;19.55;60.01
13015;BME280;6573;57.696;11.950;2023-04-21T10:47:40;102374.63;;;19.14;61.43
13015;BME280;6573;57.696;11.950;2023-04-21T10:50:19;102376.66;;;18.94;63.21
13015;BME280;6573;57.696;11.950;2023-04-21T10:52:58;102385.31;;;19.14;62.93
13015;BME280;6573;57.696;11.950;2023-04-21T10:55:28;102365.97;;;18.97;63.12
13015;BME280;6573;57.696;11.950;2023-04-21T10:57:59;102368.09;;;19.40;62.96
13015;BME280;6573;57.696;11.950;2023-04-21T11:00:28;102364.22;;;18.93;62.41
13015;BME280;6573;57.696;11.950;2023-04-21T11:02:58;102363.19;;;19.03;63.73
13015;BME280;6573;57.696;11.950;2023-04-21T11:05:32;102355.34;;;18.91;64.07
13015;BME280;6573;57.696;11.950;2023-04-21T11:08:11;102347.59;;;19.42;63.20
13015;BME280;6573;57.696;11.950;2023-04-21T11:10:45;102344.09;;;19.36;63.02
13015;BME280;6573;57.696;11.950;2023-04-21T11:13:14;102345.28;;;19.74;63.28
13015;BME280;6573;57.696;11.950;2023-04-21T11:16:01;102338.38;;;19.61;63.76
13015;BME280;6573;57.696;11.950;2023-04-21T11:18:39;102337.06;;;19.86;63.79
13015;BME280;6573;57.696;11.950;2023-04-21T11:21:09;102336.53;;;19.66;64.83
13015;BME280;6573;57.696;11.950;2023-04-21T11:23:42;102339.75;;;19.86;64.34
13015;BME280;6573;57.696;11.950;2023-04-21T11:26:14;102318.94;;;19.53;64.42
13015;BME280;6573;57.696;11.950;2023-04-21T11:28:46;102330.59;;;19.46;65.53
13015;BME280;6573;57.696;11.950;2023-04-21T11:31:15;102329.91;;;19.88;65.58
13015;BME280;6573;57.696;11.950;2023-04-21T11:33:44;102319.94;;;19.99;65.48
13015;BME280;6573;57.696;11.950;2023-04-21T11:36:12;102320.78;;;20.01;66.28
13015;BME280;6573;57.696;11.950;2023-04-21T11:38:42;102313.66;;;19.50;68.15
13015;BME280;6573;57.696;11.950;2023-04-21T11:41:10;102318.81;;;19.62;68.80
13015;BME280;6573;57.696;11.950;2023-04-21T11:43:38;102314.81;;;19.87;68.72
13015;BME280;6573;57.696;11.950;2023-04-21T11:46:16;102312.72;;;20.04;68.77
13015;BME280;6573;57.696;11.950;2023-04-21T11:48:44;102309.31;;;19.96;69.39
13015;BME280;6573;57.696;11.950;2023-04-21T11:51:16;102306.84;;;19.82;68.94
13015;BME280;6573;57.696;11.950;2023-04-21T11:53:49;102288.78;;;19.99;69.00
13015;BME280;6573;57.696;11.950;2023-04-21T11:56:19;102286.16;;;20.42;67.59
13015;BME280;6573;57.696;11.950;2023-04-21T11:58:48;102297.66;;;20.47;67.82
13015;BME280;6573;57.696;11.950;2023-04-21T12:01:18;102295.59;;;20.61;66.97
13015;BME280;6573;57.696;11.950;2023-04-21T12:03:51;102279.41;;;20.67;66.12
13015;BME280;6573;57.696;11.950;2023-04-21T12:06:22;102286.44;;;20.72;65.87
13015;BME280;6573;57.696;11.950;2023-04-21T12:08:59;102273.44;;;20.09;64.66
13015;BME280;6573;57.696;11.950;2023-04-21T12:11:29;102276.97;;;20.11;65.31
13015;BME280;6573;57.696;11.950;2023-04-21T12:13:57;102274.75;;;20.34;64.78
13015;BME280;6573;57.696;11.950;2023-04-21T12:16:27;102278.56;;;20.21;63.37
13015;BME280;6573;57.696;11.950;2023-04-21T12:18:56;102267.50;;;20.39;62.78
13015;BME280;6573;57.696;11.950;2023-04-21T12:21:30;102267.59;;;20.36;63.86
13015;BME280;6573;57.696;11.950;2023-04-21T12:24:00;102269.59;;;20.25;65.20
13015;BME280;6573;57.696;11.950;2023-04-21T12:26:28;102262.34;;;20.30;64.76
13015;BME280;6573;57.696;11.950;2023-04-21T12:28:56;102261.06;;;20.49;64.76
13015;BME280;6573;57.696;11.950;2023-04-21T12:31:26;102259.22;;;20.53;63.74
13015;BME280;6573;57.696;11.950;2023-04-21T12:33:54;102258.28;;;20.55;64.81
13015;BME280;6573;57.696;11.950;2023-04-21T12:36:26;102256.28;;;20.21;61.99
13015;BME280;6573;57.696;11.950;2023-04-21T12:38:54;102260.78;;;20.17;60.96
13015;BME280;6573;57.696;11.950;2023-04-21T12:41:23;102260.38;;;20.40;58.98
13015;BME280;6573;57.696;11.950;2023-04-21T12:43:54;102248.56;;;20.51;57.78
13015;BME280;6573;57.696;11.950;2023-04-21T12:46:22;102253.25;;;20.40;57.40
13015;BME280;6573;57.696;11.950;2023-04-21T12:48:51;102248.19;;;20.25;58.42
13015;BME280;6573;57.696;11.950;2023-04-21T12:51:19;102246.47;;;20.21;59.24
13015;BME280;6573;57.696;11.950;2023-04-21T12:53:47;102238.78;;;20.50;58.23
13015;BME280;6573;57.696;11.950;2023-04-21T12:56:15;102228.91;;;20.54;58.13
13015;BME280;6573;57.696;11.950;2023-04-21T12:58:45;102229.50;;;20.66;59.35